createdAt,value
2018-03-27T00:01:58.186Z,3.70
2018-03-27T00:04:25.649Z,3.70
2018-03-27T00:06:53.097Z,3.60
2018-03-27T00:09:20.571Z,3.60
2018-03-27T00:11:48.020Z,3.60
2018-03-27T00:14:15.487Z,3.60
2018-03-27T00:16:42.940Z,3.60
2018-03-27T00:19:10.396Z,3.60
2018-03-27T00:21:37.857Z,3.60
2018-03-27T00:24:05.307Z,3.60
2018-03-27T00:26:32.765Z,3.60
2018-03-27T00:29:12.151Z,3.50
2018-03-27T00:31:51.584Z,3.50
2018-03-27T00:34:30.972Z,3.50
2018-03-27T00:37:10.428Z,3.50
2018-03-27T00:39:49.690Z,3.50
2018-03-27T00:42:28.951Z,3.50
2018-03-27T00:44:56.399Z,3.50
2018-03-27T00:47:23.864Z,3.50
2018-03-27T00:49:51.317Z,3.50
2018-03-27T00:52:18.790Z,3.50
2018-03-27T00:54:46.243Z,3.60
2018-03-27T00:57:13.704Z,3.60
2018-03-27T00:59:41.159Z,3.60
2018-03-27T01:02:08.623Z,3.60
2018-03-27T01:04:36.076Z,3.60
2018-03-27T01:07:03.527Z,3.60
2018-03-27T01:09:30.994Z,3.60
2018-03-27T01:11:58.437Z,3.60
2018-03-27T01:14:25.889Z,3.60
2018-03-27T01:16:53.344Z,3.50
2018-03-27T01:19:20.799Z,3.60
2018-03-27T01:21:48.306Z,3.60
2018-03-27T01:24:16.531Z,3.50
2018-03-27T01:26:43.988Z,3.50
2018-03-27T01:29:11.445Z,3.50
2018-03-27T01:31:38.903Z,3.50
2018-03-27T01:34:06.361Z,3.50
2018-03-27T01:36:34.577Z,3.50
2018-03-27T01:39:02.796Z,3.50
2018-03-27T01:41:30.250Z,3.50
2018-03-27T01:43:57.708Z,3.50
2018-03-27T01:46:25.161Z,3.50
2018-03-27T01:48:52.624Z,3.50
2018-03-27T01:51:20.068Z,3.40
2018-03-27T01:53:47.528Z,3.50
2018-03-27T01:56:14.988Z,3.50
2018-03-27T01:58:42.440Z,3.50
2018-03-27T02:01:09.901Z,3.50
2018-03-27T02:03:37.352Z,3.50
2018-03-27T02:06:04.820Z,3.50
2018-03-27T02:08:32.273Z,3.40
2018-03-27T02:11:05.480Z,3.40
2018-03-27T02:13:38.616Z,3.40
2018-03-27T02:16:12.577Z,3.40
2018-03-27T02:18:45.749Z,3.40
2018-03-27T02:21:18.986Z,3.40
2018-03-27T02:23:46.431Z,3.40
2018-03-27T02:26:13.892Z,3.40
2018-03-27T02:28:41.336Z,3.40
2018-03-27T02:31:08.797Z,3.40
2018-03-27T02:33:36.262Z,3.40
2018-03-27T02:36:03.713Z,3.40
2018-03-27T02:38:31.172Z,3.30
2018-03-27T02:40:58.628Z,3.30
2018-03-27T02:43:26.084Z,3.30
2018-03-27T02:45:53.528Z,3.30
2018-03-27T02:48:21.002Z,3.30
2018-03-27T02:50:48.467Z,3.30
2018-03-27T02:53:15.929Z,3.30
2018-03-27T02:55:44.144Z,3.30
2018-03-27T02:58:11.608Z,3.30
2018-03-27T03:00:39.070Z,3.30
2018-03-27T03:03:07.297Z,3.30
2018-03-27T03:05:35.520Z,3.30
2018-03-27T03:08:02.973Z,3.30
2018-03-27T03:10:30.419Z,3.30
2018-03-27T03:12:57.893Z,3.20
2018-03-27T03:15:25.337Z,3.30
2018-03-27T03:17:52.796Z,3.20
2018-03-27T03:20:20.248Z,3.20
2018-03-27T03:22:47.704Z,3.10
2018-03-27T03:25:15.158Z,3.10
2018-03-27T03:27:42.615Z,3.10
2018-03-27T03:30:10.072Z,3.10
2018-03-27T03:32:37.540Z,3.00
2018-03-27T03:35:04.983Z,3.00
2018-03-27T03:37:32.449Z,3.00
2018-03-27T03:39:59.892Z,3.00
2018-03-27T03:42:27.437Z,3.00
2018-03-27T03:44:54.894Z,3.00
2018-03-27T03:47:22.352Z,2.90
2018-03-27T03:49:49.808Z,2.90
2018-03-27T03:52:17.272Z,2.90
2018-03-27T03:54:44.724Z,2.90
2018-03-27T03:57:12.185Z,2.90
2018-03-27T03:59:39.653Z,2.80
2018-03-27T04:02:07.116Z,2.80
2018-03-27T04:04:34.569Z,2.70
2018-03-27T04:07:02.026Z,2.70
2018-03-27T04:09:29.484Z,2.70
2018-03-27T04:11:56.929Z,2.70
2018-03-27T04:14:24.392Z,2.60
2018-03-27T04:16:51.854Z,2.40
2018-03-27T04:19:19.332Z,2.30
2018-03-27T04:21:46.786Z,2.20
2018-03-27T04:24:14.251Z,2.10
2018-03-27T04:26:41.696Z,2.10
2018-03-27T04:29:09.147Z,2.00
2018-03-27T04:31:36.599Z,1.80
2018-03-27T04:34:04.050Z,1.80
2018-03-27T04:36:31.509Z,1.70
2018-03-27T04:38:58.952Z,1.70
2018-03-27T04:41:26.412Z,1.60
2018-03-27T04:43:53.901Z,1.50
2018-03-27T04:46:21.363Z,1.40
2018-03-27T04:48:48.824Z,1.30
2018-03-27T04:51:16.283Z,1.30
2018-03-27T04:53:43.741Z,1.20
2018-03-27T04:56:11.213Z,1.00
2018-03-27T04:58:39.430Z,1.00
2018-03-27T05:01:06.898Z,1.00
2018-03-27T05:03:35.326Z,0.90
2018-03-27T05:06:03.570Z,0.80
2018-03-27T05:08:31.040Z,0.70
2018-03-27T05:10:58.515Z,0.70
2018-03-27T05:13:26.732Z,0.90
2018-03-27T05:15:54.180Z,0.80
2018-03-27T05:18:21.706Z,0.90
2018-03-27T05:20:49.168Z,0.90
2018-03-27T05:23:16.624Z,0.80
2018-03-27T05:25:44.080Z,0.90
2018-03-27T05:28:11.540Z,1.00
2018-03-27T05:30:39.003Z,1.20
2018-03-27T05:33:06.465Z,1.20
2018-03-27T05:35:33.921Z,1.30
2018-03-27T05:38:01.380Z,1.40
2018-03-27T05:40:28.842Z,1.50
2018-03-27T05:42:56.296Z,1.60
2018-03-27T05:45:23.750Z,1.70
2018-03-27T05:47:51.228Z,1.80
2018-03-27T05:50:18.683Z,1.80
2018-03-27T05:52:46.144Z,1.90
2018-03-27T05:55:13.596Z,1.90
2018-03-27T05:57:41.047Z,2.10
2018-03-27T06:00:08.533Z,2.30
2018-03-27T06:02:35.976Z,2.40
2018-03-27T06:05:03.479Z,2.50
2018-03-27T06:07:31.680Z,2.90
2018-03-27T06:09:59.137Z,2.90
2018-03-27T06:12:27.516Z,3.00
2018-03-27T06:14:54.982Z,3.30
2018-03-27T06:17:22.425Z,3.40
2018-03-27T06:19:49.884Z,3.60
2018-03-27T06:22:17.330Z,3.60
2018-03-27T06:24:44.776Z,3.60
2018-03-27T06:27:12.231Z,3.50
2018-03-27T06:29:39.672Z,3.60
2018-03-27T06:32:07.952Z,4.20
2018-03-27T06:34:36.176Z,4.50
2018-03-27T06:37:03.745Z,4.50
2018-03-27T06:39:31.201Z,4.80
2018-03-27T06:41:58.692Z,4.80
2018-03-27T06:44:26.905Z,5.00
2018-03-27T06:46:54.364Z,5.00
2018-03-27T06:49:21.812Z,4.90
2018-03-27T06:51:49.268Z,5.00
2018-03-27T06:54:16.721Z,5.00
2018-03-27T06:56:44.172Z,4.90
2018-03-27T06:59:11.628Z,4.80
2018-03-27T07:01:39.088Z,4.90
2018-03-27T07:04:06.535Z,5.20
2018-03-27T07:06:34.016Z,5.50
2018-03-27T07:09:01.468Z,5.80
2018-03-27T07:11:28.920Z,5.60
2018-03-27T07:13:56.400Z,5.60
2018-03-27T07:16:23.822Z,5.80
2018-03-27T07:18:51.272Z,6.00
2018-03-27T07:21:18.756Z,6.10
2018-03-27T07:23:46.940Z,6.10
2018-03-27T07:26:14.393Z,6.10
2018-03-27T07:28:41.840Z,6.60
2018-03-27T07:31:09.297Z,6.70
2018-03-27T07:33:36.759Z,6.90
2018-03-27T07:36:04.209Z,7.30
2018-03-27T07:38:31.668Z,7.70
2018-03-27T07:40:59.114Z,8.60
2018-03-27T07:43:26.585Z,10.10
2018-03-27T07:45:54.038Z,11.50
2018-03-27T07:48:21.494Z,12.70
2018-03-27T07:50:48.990Z,13.40
2018-03-27T07:53:16.442Z,13.70
2018-03-27T07:55:43.897Z,14.90
2018-03-27T07:58:11.354Z,16.30
2018-03-27T08:00:38.814Z,17.40
2018-03-27T08:03:06.269Z,18.00
2018-03-27T08:05:33.725Z,19.00
2018-03-27T08:08:01.176Z,19.00
2018-03-27T08:10:28.632Z,19.30
2018-03-27T08:12:56.083Z,19.50
2018-03-27T08:15:23.541Z,17.70
2018-03-27T08:17:50.995Z,17.10
2018-03-27T08:20:18.460Z,15.80
2018-03-27T08:22:45.912Z,16.70
2018-03-27T08:25:13.372Z,17.30
2018-03-27T08:27:40.828Z,17.70
2018-03-27T08:30:08.293Z,17.90
2018-03-27T08:32:35.750Z,17.30
2018-03-27T08:35:03.213Z,15.90
2018-03-27T08:37:30.659Z,14.60
2018-03-27T08:39:58.122Z,12.80
2018-03-27T08:42:25.581Z,11.90
2018-03-27T08:44:53.040Z,10.60
2018-03-27T08:47:21.255Z,8.40
2018-03-27T08:49:48.719Z,8.40
2018-03-27T08:52:16.173Z,8.10
2018-03-27T08:54:43.628Z,7.80
2018-03-27T08:57:11.081Z,7.70
2018-03-27T08:59:38.540Z,7.80
2018-03-27T09:02:05.998Z,8.50
2018-03-27T09:04:33.456Z,8.90
2018-03-27T09:07:00.909Z,9.50
2018-03-27T09:09:28.360Z,11.40
2018-03-27T09:11:55.821Z,13.80
2018-03-27T09:14:23.280Z,16.20
2018-03-27T09:16:50.736Z,18.30
2018-03-27T09:19:18.192Z,19.00
2018-03-27T09:21:45.652Z,21.00
2018-03-27T09:24:13.104Z,21.00
2018-03-27T09:26:40.570Z,20.10
2018-03-27T09:29:08.022Z,18.80
2018-03-27T09:31:35.469Z,20.10
2018-03-27T09:34:02.928Z,22.10
2018-03-27T09:36:30.386Z,22.90
2018-03-27T09:38:57.841Z,24.40
2018-03-27T09:41:25.299Z,23.60
2018-03-27T09:43:52.756Z,22.90
2018-03-27T09:46:20.203Z,23.30
2018-03-27T09:48:47.656Z,24.20
2018-03-27T09:51:15.122Z,25.10
2018-03-27T09:53:42.568Z,25.40
2018-03-27T09:56:10.051Z,26.30
2018-03-27T09:58:37.506Z,24.70
2018-03-27T10:01:08.754Z,21.50
2018-03-27T10:03:36.211Z,19.80
2018-03-27T10:06:03.655Z,17.30
2018-03-27T10:08:31.112Z,15.90
2018-03-27T10:10:58.564Z,15.90
2018-03-27T10:13:26.028Z,15.80
2018-03-27T10:15:53.491Z,16.50
2018-03-27T10:18:20.947Z,16.10
2018-03-27T10:20:48.408Z,15.40
2018-03-27T10:23:15.868Z,14.80
2018-03-27T10:25:43.343Z,13.60
2018-03-27T10:28:10.793Z,13.00
2018-03-27T10:30:38.265Z,12.50
2018-03-27T10:33:05.764Z,12.70
2018-03-27T10:35:33.188Z,12.50
2018-03-27T10:38:01.408Z,11.40
2018-03-27T10:40:28.872Z,11.40
2018-03-27T10:42:56.327Z,10.90
2018-03-27T10:45:23.844Z,10.40
2018-03-27T10:47:51.237Z,9.90
2018-03-27T10:50:18.692Z,9.90
2018-03-27T10:52:46.148Z,10.00
2018-03-27T10:55:13.608Z,10.20
2018-03-27T10:57:41.065Z,10.80
2018-03-27T11:00:08.536Z,11.30
2018-03-27T11:02:35.993Z,11.10
2018-03-27T11:05:03.449Z,11.00
2018-03-27T11:07:30.899Z,10.60
2018-03-27T11:09:58.402Z,10.30
2018-03-27T11:12:25.820Z,10.30
2018-03-27T11:14:53.276Z,11.40
2018-03-27T11:17:21.501Z,13.60
2018-03-27T11:19:48.956Z,13.60
2018-03-27T11:22:16.416Z,13.40
2018-03-27T11:24:43.881Z,12.60
2018-03-27T11:27:11.341Z,12.10
2018-03-27T11:29:38.799Z,11.80
2018-03-27T11:32:06.255Z,11.30
2018-03-27T11:34:33.708Z,10.90
2018-03-27T11:37:01.167Z,10.50
2018-03-27T11:39:28.621Z,10.30
2018-03-27T11:41:56.078Z,10.30
2018-03-27T11:44:23.533Z,10.40
2018-03-27T11:46:50.989Z,10.90
2018-03-27T11:49:18.437Z,11.00
2018-03-27T11:51:45.888Z,10.90
2018-03-27T11:54:13.343Z,10.60
2018-03-27T11:56:40.800Z,10.40
2018-03-27T11:59:08.256Z,10.10
2018-03-27T12:01:36.491Z,10.00
2018-03-27T12:04:03.929Z,10.10
2018-03-27T12:06:31.380Z,10.20
2018-03-27T12:08:58.834Z,10.50
2018-03-27T12:11:26.280Z,10.90
2018-03-27T12:13:53.732Z,11.10
2018-03-27T12:16:21.195Z,11.50
2018-03-27T12:18:48.671Z,11.90
2018-03-27T12:21:16.124Z,12.00
2018-03-27T12:23:43.593Z,11.80
2018-03-27T12:26:11.056Z,12.00
2018-03-27T12:28:38.507Z,12.40
2018-03-27T12:31:05.972Z,12.80
2018-03-27T12:33:33.422Z,12.60
2018-03-27T12:36:01.142Z,12.20
2018-03-27T12:38:28.612Z,12.20
2018-03-27T12:40:56.082Z,12.00
2018-03-27T12:43:23.537Z,12.20
2018-03-27T12:45:51.052Z,12.00
2018-03-27T12:48:19.268Z,12.40
2018-03-27T12:50:47.500Z,13.00
2018-03-27T12:53:14.983Z,13.00
2018-03-27T12:55:42.416Z,12.80
2018-03-27T12:58:09.864Z,12.20
2018-03-27T13:00:38.087Z,12.20
2018-03-27T13:03:05.553Z,12.10
2018-03-27T13:05:33.019Z,11.80
2018-03-27T13:08:00.469Z,11.50
2018-03-27T13:10:27.939Z,11.30
2018-03-27T13:12:55.395Z,11.20
2018-03-27T13:15:22.844Z,11.30
2018-03-27T13:17:50.296Z,11.80
2018-03-27T13:20:17.755Z,12.20
2018-03-27T13:22:45.229Z,12.40
2018-03-27T13:25:12.688Z,12.50
2018-03-27T13:27:40.150Z,12.50
2018-03-27T13:30:08.369Z,13.10
2018-03-27T13:32:35.913Z,13.00
2018-03-27T13:35:03.392Z,12.60
2018-03-27T13:37:30.852Z,12.30
2018-03-27T13:39:58.315Z,12.20
2018-03-27T13:42:25.771Z,12.10
2018-03-27T13:44:53.229Z,11.90
2018-03-27T13:47:20.683Z,11.80
2018-03-27T13:49:48.144Z,11.60
2018-03-27T13:52:15.596Z,11.40
2018-03-27T13:54:43.048Z,11.20
2018-03-27T13:57:11.280Z,11.50
2018-03-27T13:59:38.735Z,11.50
2018-03-27T14:02:06.197Z,11.40
2018-03-27T14:04:33.648Z,11.40
2018-03-27T14:07:01.108Z,11.20
2018-03-27T14:09:28.569Z,11.20
2018-03-27T14:11:56.040Z,11.10
2018-03-27T14:14:23.492Z,11.10
2018-03-27T14:16:51.049Z,11.20
2018-03-27T14:19:18.500Z,11.40
2018-03-27T14:21:45.954Z,11.50
2018-03-27T14:24:13.409Z,11.60
2018-03-27T14:26:40.873Z,11.40
2018-03-27T14:29:08.321Z,11.40
2018-03-27T14:31:35.776Z,11.50
2018-03-27T14:34:03.238Z,11.90
2018-03-27T14:36:30.698Z,12.30
2018-03-27T14:38:58.969Z,12.60
2018-03-27T14:41:26.424Z,12.50
2018-03-27T14:43:53.880Z,12.60
2018-03-27T14:46:21.336Z,12.50
2018-03-27T14:48:48.796Z,12.20
2018-03-27T14:51:16.248Z,11.90
2018-03-27T14:53:43.713Z,11.80
2018-03-27T14:56:11.178Z,11.60
2018-03-27T14:58:38.647Z,11.50
2018-03-27T15:01:06.109Z,11.50
2018-03-27T15:03:33.566Z,11.60
2018-03-27T15:06:01.016Z,11.60
2018-03-27T15:08:28.473Z,11.40
2018-03-27T15:10:55.924Z,11.50
2018-03-27T15:13:23.380Z,11.60
2018-03-27T15:15:50.833Z,11.90
2018-03-27T15:18:18.288Z,12.00
2018-03-27T15:20:45.741Z,11.90
2018-03-27T15:23:13.195Z,11.90
2018-03-27T15:25:40.652Z,11.90
2018-03-27T15:28:08.108Z,11.70
2018-03-27T15:30:35.563Z,11.60
2018-03-27T15:33:03.021Z,11.50
2018-03-27T15:35:30.480Z,11.30
2018-03-27T15:37:57.936Z,11.10
2018-03-27T15:40:25.387Z,11.20
2018-03-27T15:42:52.841Z,11.20
2018-03-27T15:45:20.307Z,11.00
2018-03-27T15:47:47.768Z,11.00
2018-03-27T15:50:15.224Z,11.00
2018-03-27T15:52:42.678Z,10.90
2018-03-27T15:55:10.181Z,11.00
2018-03-27T15:57:37.658Z,10.80
2018-03-27T16:00:05.889Z,10.70
2018-03-27T16:02:34.104Z,10.50
2018-03-27T16:05:02.328Z,10.40
2018-03-27T16:07:29.776Z,10.40
2018-03-27T16:09:57.226Z,10.20
2018-03-27T16:12:24.680Z,10.00
2018-03-27T16:14:52.136Z,10.00
2018-03-27T16:17:19.591Z,9.80
2018-03-27T16:19:47.042Z,9.80
2018-03-27T16:22:14.501Z,9.70
2018-03-27T16:24:41.944Z,9.60
2018-03-27T16:27:09.407Z,9.50
2018-03-27T16:29:36.907Z,9.50
2018-03-27T16:32:04.406Z,9.50
2018-03-27T16:34:32.651Z,9.40
2018-03-27T16:37:00.114Z,9.30
2018-03-27T16:39:27.570Z,9.40
2018-03-27T16:41:55.017Z,9.50
2018-03-27T16:44:22.464Z,9.50
2018-03-27T16:46:50.758Z,9.40
2018-03-27T16:49:18.999Z,9.40
2018-03-27T16:51:46.452Z,9.40
2018-03-27T16:54:13.911Z,9.30
2018-03-27T16:56:41.365Z,9.20
2018-03-27T16:59:08.812Z,9.20
2018-03-27T17:01:36.259Z,9.20
2018-03-27T17:04:03.708Z,9.10
2018-03-27T17:06:31.151Z,9.00
2018-03-27T17:08:58.600Z,8.90
2018-03-27T17:11:26.816Z,8.90
2018-03-27T17:13:54.264Z,8.80
2018-03-27T17:16:21.718Z,8.80
2018-03-27T17:18:49.167Z,8.80
2018-03-27T17:21:16.615Z,8.70
2018-03-27T17:23:44.072Z,8.60
2018-03-27T17:26:11.532Z,8.60
2018-03-27T17:28:39.300Z,8.50
2018-03-27T17:31:06.759Z,8.50
2018-03-27T17:33:34.216Z,8.40
2018-03-27T17:36:01.680Z,8.30
2018-03-27T17:38:29.134Z,8.30
2018-03-27T17:40:56.600Z,8.30
2018-03-27T17:43:24.048Z,8.20
2018-03-27T17:45:51.512Z,8.10
2018-03-27T17:48:19.029Z,8.00
2018-03-27T17:50:47.256Z,7.80
2018-03-27T17:53:14.713Z,7.80
2018-03-27T17:55:42.203Z,7.70
2018-03-27T17:58:09.688Z,7.60
2018-03-27T18:00:37.140Z,7.50
2018-03-27T18:03:04.594Z,7.40
2018-03-27T18:05:32.821Z,7.30
2018-03-27T18:08:00.270Z,7.30
2018-03-27T18:10:27.756Z,7.20
2018-03-27T18:12:55.227Z,7.10
2018-03-27T18:15:23.491Z,7.00
2018-03-27T18:17:50.943Z,6.90
2018-03-27T18:20:18.413Z,6.90
2018-03-27T18:22:45.888Z,6.90
2018-03-27T18:25:13.367Z,6.90
2018-03-27T18:27:40.832Z,6.90
2018-03-27T18:30:08.291Z,6.90
2018-03-27T18:32:35.753Z,6.90
2018-03-27T18:35:03.249Z,6.90
2018-03-27T18:37:30.771Z,6.80
2018-03-27T18:39:58.337Z,6.80
2018-03-27T18:42:25.800Z,6.70
2018-03-27T18:44:53.245Z,6.70
2018-03-27T18:47:20.725Z,6.70
2018-03-27T18:49:48.192Z,6.70
2018-03-27T18:52:16.410Z,6.70
2018-03-27T18:54:43.868Z,6.70
2018-03-27T18:57:11.316Z,6.70
2018-03-27T18:59:38.785Z,6.60
2018-03-27T19:02:06.239Z,6.60
2018-03-27T19:04:33.696Z,6.60
2018-03-27T19:07:01.148Z,6.60
2018-03-27T19:09:28.597Z,6.60
2018-03-27T19:11:56.075Z,6.60
2018-03-27T19:14:23.532Z,6.60
2018-03-27T19:16:50.992Z,6.50
2018-03-27T19:19:18.454Z,6.50
2018-03-27T19:21:45.921Z,6.40
2018-03-27T19:24:13.408Z,6.40
2018-03-27T19:26:40.846Z,6.30
2018-03-27T19:29:08.301Z,6.20
2018-03-27T19:31:35.754Z,6.20
2018-03-27T19:34:03.269Z,6.20
2018-03-27T19:36:30.798Z,6.20
2018-03-27T19:38:59.103Z,6.30
2018-03-27T19:41:26.580Z,6.20
2018-03-27T19:43:54.034Z,6.30
2018-03-27T19:46:21.560Z,6.30
2018-03-27T19:48:49.026Z,6.30
2018-03-27T19:51:16.483Z,6.40
2018-03-27T19:53:43.936Z,6.40
2018-03-27T19:56:11.400Z,6.40
2018-03-27T19:58:38.847Z,6.40
2018-03-27T20:01:06.297Z,6.40
2018-03-27T20:03:33.756Z,6.40
2018-03-27T20:06:01.250Z,6.40
2018-03-27T20:08:28.714Z,6.40
2018-03-27T20:10:56.951Z,6.40
2018-03-27T20:13:24.400Z,6.40
2018-03-27T20:15:51.897Z,6.40
2018-03-27T20:18:19.373Z,6.40
2018-03-27T20:20:46.863Z,6.50
2018-03-27T20:23:15.081Z,6.50
2018-03-27T20:25:42.540Z,6.50
2018-03-27T20:28:10.026Z,6.50
2018-03-27T20:30:37.452Z,6.40
2018-03-27T20:33:04.899Z,6.40
2018-03-27T20:35:32.348Z,6.30
2018-03-27T20:37:59.795Z,6.30
2018-03-27T20:40:27.248Z,6.40
2018-03-27T20:42:54.696Z,6.40
2018-03-27T20:45:22.141Z,6.40
2018-03-27T20:47:49.585Z,6.40
2018-03-27T20:50:17.797Z,6.50
2018-03-27T20:52:45.248Z,6.40
2018-03-27T20:55:12.705Z,6.50
2018-03-27T20:57:40.167Z,6.60
2018-03-27T21:00:07.640Z,6.60
2018-03-27T21:02:35.080Z,6.60
2018-03-27T21:05:02.531Z,6.60
2018-03-27T21:07:29.992Z,6.70
2018-03-27T21:09:57.449Z,6.70
2018-03-27T21:12:24.900Z,6.80
2018-03-27T21:14:52.356Z,7.00
2018-03-27T21:17:19.812Z,7.00
2018-03-27T21:19:47.264Z,7.00
2018-03-27T21:22:14.721Z,6.90
2018-03-27T21:24:42.169Z,6.90
2018-03-27T21:27:09.624Z,6.90
2018-03-27T21:29:37.076Z,6.90
2018-03-27T21:32:04.529Z,6.90
2018-03-27T21:34:32.744Z,6.70
2018-03-27T21:37:00.200Z,6.70
2018-03-27T21:39:27.664Z,6.70
2018-03-27T21:41:55.111Z,6.70
2018-03-27T21:44:22.561Z,6.60
2018-03-27T21:46:50.007Z,6.60
2018-03-27T21:49:17.458Z,6.60
2018-03-27T21:51:44.913Z,6.60
2018-03-27T21:54:12.356Z,6.60
2018-03-27T21:56:39.856Z,6.60
2018-03-27T21:59:08.023Z,6.50
2018-03-27T22:01:35.470Z,6.50
2018-03-27T22:04:02.920Z,6.50
2018-03-27T22:06:30.372Z,6.50
2018-03-27T22:08:57.829Z,6.50
2018-03-27T22:11:25.290Z,6.40
2018-03-27T22:13:52.735Z,6.30
2018-03-27T22:16:20.216Z,6.30
2018-03-27T22:18:47.643Z,6.30
2018-03-27T22:21:15.105Z,6.30
2018-03-27T22:23:42.548Z,6.30
2018-03-27T22:26:10.001Z,6.20
2018-03-27T22:28:38.212Z,6.10
2018-03-27T22:31:05.680Z,6.10
2018-03-27T22:33:33.892Z,6.00
2018-03-27T22:36:02.184Z,6.00
2018-03-27T22:38:29.639Z,6.00
2018-03-27T22:40:57.088Z,5.90
2018-03-27T22:43:25.301Z,5.90
2018-03-27T22:45:52.745Z,5.90
2018-03-27T22:48:20.193Z,5.90
2018-03-27T22:50:47.640Z,5.90
2018-03-27T22:53:15.105Z,5.80
2018-03-27T22:55:42.556Z,5.80
2018-03-27T22:58:10.011Z,5.80
2018-03-27T23:00:37.464Z,5.80
2018-03-27T23:03:04.928Z,5.80
2018-03-27T23:05:32.372Z,5.80
2018-03-27T23:08:00.593Z,5.80
2018-03-27T23:10:28.037Z,5.80
2018-03-27T23:12:55.484Z,5.80
2018-03-27T23:15:22.937Z,5.80
2018-03-27T23:17:50.392Z,5.80
2018-03-27T23:20:17.841Z,5.70
2018-03-27T23:22:45.292Z,5.70
2018-03-27T23:25:12.744Z,5.70
2018-03-27T23:27:40.189Z,5.80
2018-03-27T23:30:08.413Z,5.80
2018-03-27T23:32:35.856Z,5.70
2018-03-27T23:35:03.329Z,5.80
2018-03-27T23:37:30.779Z,5.70
2018-03-27T23:39:58.232Z,5.70
2018-03-27T23:42:25.685Z,5.70
2018-03-27T23:44:53.134Z,5.70
2018-03-27T23:47:20.591Z,5.70
2018-03-27T23:49:48.044Z,5.70
2018-03-27T23:52:15.497Z,5.70
2018-03-27T23:54:42.948Z,5.70
2018-03-27T23:57:10.405Z,5.70
2018-03-27T23:59:37.843Z,5.70
